Time;durP1;ratioP1;P1;durP2;ratioP2;P2;SDS_P1;SDS_P2;PMS_P1;PMS_P2;Temp;Humidity;BMP_temperature;BMP_pressure;BME280_temperature;BME280_humidity;BME280_pressure;Samples;Min_cycle;Max_cycle;Signal;HPM_P1;HPM_P2
2023/04/03 00:01:31;;;;;;;2.65;0.90;;;7.20;99.90;;;;;;4979006;28;20042;-68
2023/04/03 00:03:57;;;;;;;2.47;0.82;;;7.20;99.90;;;;;;4979337;28;20023;-67
2023/04/03 00:06:24;;;;;;;0.65;0.50;;;7.20;99.90;;;;;;4979772;28;20023;-67
2023/04/03 00:08:50;;;;;;;3.42;0.77;;;7.20;99.90;;;;;;4979199;28;20114;-67
2023/04/03 00:11:16;;;;;;;1.05;0.70;;;7.20;99.90;;;;;;4979319;28;20106;-67
2023/04/03 00:13:42;;;;;;;2.13;0.73;;;7.20;99.90;;;;;;4978107;28;20090;-67
2023/04/03 00:16:10;;;;;;;4.63;0.90;;;7.20;99.90;;;;;;4979049;28;20033;-67
2023/04/03 00:18:36;;;;;;;3.67;0.73;;;7.20;99.90;;;;;;4979045;28;20026;-67
2023/04/03 00:21:03;;;;;;;4.15;0.90;;;7.20;99.90;;;;;;4978932;28;20057;-67
2023/04/03 00:23:28;;;;;;;2.38;1.00;;;7.20;99.90;;;;;;4978032;28;20029;-67
2023/04/03 00:25:55;;;;;;;3.47;0.63;;;7.30;99.90;;;;;;4978372;28;20026;-64
2023/04/03 00:28:21;;;;;;;0.68;0.50;;;7.20;99.90;;;;;;4978821;28;20022;-64
2023/04/03 00:30:48;;;;;;;2.35;0.85;;;7.20;99.90;;;;;;4978715;28;20061;-63
2023/04/03 00:33:14;;;;;;;2.13;0.90;;;7.10;99.90;;;;;;4978563;28;20027;-63
2023/04/03 00:35:40;;;;;;;2.30;1.05;;;6.90;99.90;;;;;;4978600;28;20018;-63
2023/04/03 00:38:09;;;;;;;2.80;0.73;;;7.10;99.90;;;;;;4978137;28;20019;-63
2023/04/03 00:40:41;;;;;;;2.63;1.17;;;7.20;99.90;;;;;;4978848;28;20019;-64
2023/04/03 00:43:16;;;;;;;3.67;0.80;;;7.20;99.90;;;;;;4978683;28;20121;-64
2023/04/03 00:45:44;;;;;;;1.02;0.57;;;7.10;99.90;;;;;;4978172;28;20077;-64
2023/04/03 00:48:15;;;;;;;2.85;0.80;;;7.20;99.90;;;;;;4978490;28;20085;-64
2023/04/03 00:50:43;;;;;;;4.43;0.82;;;7.10;99.90;;;;;;4978860;28;20082;-63
2023/04/03 00:53:13;;;;;;;1.38;0.50;;;7.00;99.90;;;;;;4977744;28;20034;-64
2023/04/03 00:55:42;;;;;;;2.55;0.70;;;7.00;99.90;;;;;;4977839;28;20051;-63
2023/04/03 00:58:09;;;;;;;0.70;0.55;;;7.00;99.90;;;;;;4978405;28;20026;-64
2023/04/03 01:00:37;;;;;;;4.88;0.50;;;7.00;99.90;;;;;;4978214;28;20022;-63
2023/04/03 01:03:03;;;;;;;1.17;0.63;;;7.10;99.90;;;;;;4977799;28;20081;-64
2023/04/03 01:05:28;;;;;;;1.73;0.63;;;7.00;99.90;;;;;;4977667;28;20030;-63
2023/04/03 01:07:54;;;;;;;3.50;0.60;;;7.00;99.90;;;;;;4978218;28;20031;-64
2023/04/03 01:10:20;;;;;;;4.38;0.80;;;7.10;99.90;;;;;;4978229;28;20027;-64
2023/04/03 01:12:48;;;;;;;2.88;0.85;;;7.00;99.90;;;;;;4977981;28;20027;-63
2023/04/03 01:15:23;;;;;;;2.65;0.63;;;7.00;99.90;;;;;;4977242;28;20027;-63
2023/04/03 01:18:00;;;;;;;2.95;0.60;;;7.00;99.90;;;;;;4977619;28;20034;-64
2023/04/03 01:20:32;;;;;;;2.67;0.70;;;6.90;99.90;;;;;;4978248;28;20026;-63
2023/04/03 01:23:09;;;;;;;1.88;0.70;;;6.80;99.90;;;;;;4977545;28;20057;-63
2023/04/03 01:25:46;;;;;;;5.25;0.80;;;6.70;99.90;;;;;;4977410;28;20054;-64
2023/04/03 01:28:19;;;;;;;3.78;0.68;;;6.80;99.90;;;;;;4978241;28;20027;-63
2023/04/03 01:30:50;;;;;;;1.15;0.80;;;6.80;99.90;;;;;;4977236;28;20027;-63
2023/04/03 01:33:15;;;;;;;2.05;0.57;;;6.80;99.90;;;;;;4977932;28;20195;-64
2023/04/03 01:35:41;;;;;;;4.32;0.52;;;6.80;99.90;;;;;;4978086;28;20130;-64
2023/04/03 01:38:06;;;;;;;3.17;1.15;;;6.80;99.90;;;;;;4979834;28;20023;-64
2023/04/03 01:40:32;;;;;;;2.25;0.70;;;6.80;99.90;;;;;;4981945;28;20038;-64
2023/04/03 01:42:58;;;;;;;3.50;0.90;;;6.80;99.90;;;;;;4981848;28;20109;-63
2023/04/03 01:45:23;;;;;;;3.58;0.68;;;6.70;99.90;;;;;;4980828;28;20053;-63
2023/04/03 01:47:49;;;;;;;3.53;0.68;;;6.60;99.90;;;;;;4981901;28;20027;-63
2023/04/03 01:50:15;;;;;;;1.77;0.60;;;6.70;99.90;;;;;;4982078;28;20038;-63
2023/04/03 01:52:40;;;;;;;3.08;0.90;;;6.60;99.90;;;;;;4981379;28;20041;-64
2023/04/03 01:55:06;;;;;;;4.75;0.95;;;6.50;99.90;;;;;;4980814;28;20029;-64
2023/04/03 01:57:32;;;;;;;1.50;0.70;;;6.50;99.90;;;;;;4981503;28;20050;-64
2023/04/03 01:59:57;;;;;;;3.35;0.55;;;6.60;99.90;;;;;;4981911;28;20031;-63
2023/04/03 02:02:23;;;;;;;1.98;0.30;;;6.50;99.90;;;;;;4981614;28;20034;-64
2023/04/03 02:04:48;;;;;;;2.65;0.60;;;6.40;99.90;;;;;;4981296;28;20050;-63
2023/04/03 02:07:14;;;;;;;3.55;0.70;;;6.30;99.90;;;;;;4980977;28;20027;-64
2023/04/03 02:09:40;;;;;;;2.42;0.50;;;6.30;99.90;;;;;;4981607;28;20084;-63
2023/04/03 02:12:05;;;;;;;3.30;0.73;;;6.20;99.90;;;;;;4980790;28;20042;-63
2023/04/03 02:14:31;;;;;;;4.10;0.73;;;6.30;99.90;;;;;;4980313;28;20030;-63
2023/04/03 02:16:56;;;;;;;1.52;0.40;;;6.10;99.90;;;;;;4981490;28;20077;-63
2023/04/03 02:19:22;;;;;;;3.28;0.85;;;6.20;99.90;;;;;;4980536;28;20018;-64
2023/04/03 02:21:48;;;;;;;2.28;0.57;;;6.20;99.90;;;;;;4980328;28;20063;-64
2023/04/03 02:24:14;;;;;;;4.60;0.80;;;6.20;99.90;;;;;;4981248;28;20031;-63
2023/04/03 02:26:39;;;;;;;3.45;0.57;;;6.20;99.90;;;;;;4980296;28;20027;-63
2023/04/03 02:29:05;;;;;;;3.72;0.90;;;6.00;99.90;;;;;;4980401;28;20122;-63
2023/04/03 02:31:31;;;;;;;2.30;0.50;;;6.00;99.90;;;;;;4981263;28;20110;-63
2023/04/03 02:33:57;;;;;;;2.78;0.70;;;5.90;99.90;;;;;;4980661;28;20026;-64
2023/04/03 02:36:22;;;;;;;4.88;1.00;;;5.90;99.90;;;;;;4980064;28;20022;-63
2023/04/03 02:38:48;;;;;;;3.85;0.80;;;5.80;99.90;;;;;;4980078;28;20018;-63
2023/04/03 02:41:13;;;;;;;1.25;0.75;;;5.70;99.90;;;;;;4980217;28;20045;-63
2023/04/03 02:43:39;;;;;;;1.83;0.60;;;5.80;99.90;;;;;;4979808;28;20045;-64
2023/04/03 02:46:06;;;;;;;1.48;0.80;;;5.70;99.90;;;;;;4979941;28;20118;-63
2023/04/03 02:48:32;;;;;;;2.30;1.20;;;5.80;99.90;;;;;;4979973;28;20053;-63
2023/04/03 02:50:57;;;;;;;2.13;1.05;;;5.90;99.90;;;;;;4980725;28;20139;-63
2023/04/03 02:53:23;;;;;;;3.22;0.90;;;5.80;99.90;;;;;;4979642;28;20034;-63
2023/04/03 02:55:49;;;;;;;2.38;0.70;;;5.60;99.90;;;;;;4980557;28;20030;-64
2023/04/03 02:58:15;;;;;;;2.20;0.68;;;5.60;99.90;;;;;;4979642;28;20102;-63
2023/04/03 03:00:40;;;;;;;9.73;1.05;;;5.50;99.90;;;;;;4980765;28;20027;-63
2023/04/03 03:03:06;;;;;;;0.75;0.40;;;5.40;99.90;;;;;;4979909;28;20089;-64
2023/04/03 03:05:32;;;;;;;3.60;0.90;;;5.40;99.90;;;;;;4979994;28;20034;-64
2023/04/03 03:07:57;;;;;;;2.33;0.80;;;5.20;99.90;;;;;;4979624;28;20029;-63
2023/04/03 03:10:23;;;;;;;4.78;1.60;;;5.10;99.90;;;;;;4979554;28;20023;-64
2023/04/03 03:12:49;;;;;;;2.30;0.73;;;5.20;99.90;;;;;;4979359;28;20022;-63
2023/04/03 03:15:16;;;;;;;7.82;0.75;;;5.00;99.90;;;;;;4979372;28;20066;-63
2023/04/03 03:17:41;;;;;;;5.43;1.00;;;4.80;99.90;;;;;;4979311;28;20027;-63
2023/04/03 03:20:07;;;;;;;3.88;0.95;;;4.70;99.90;;;;;;4979300;28;20065;-63
2023/04/03 03:22:34;;;;;;;3.40;0.70;;;4.70;99.90;;;;;;4979329;28;20023;-63
2023/04/03 03:24:59;;;;;;;6.60;1.00;;;4.60;99.90;;;;;;4979928;28;20027;-63
2023/04/03 03:27:25;;;;;;;1.15;0.50;;;4.50;99.90;;;;;;4980283;28;20158;-63
2023/04/03 03:29:50;;;;;;;1.13;0.52;;;4.60;99.90;;;;;;4979969;28;20022;-64
2023/04/03 03:32:16;;;;;;;3.33;0.70;;;4.70;99.90;;;;;;4979933;28;20026;-63
2023/04/03 03:34:41;;;;;;;3.28;0.80;;;4.50;99.90;;;;;;4978836;28;20114;-63
2023/04/03 03:37:07;;;;;;;4.05;1.15;;;4.70;99.90;;;;;;4978936;28;20160;-63
2023/04/03 03:39:32;;;;;;;2.33;0.82;;;4.80;99.90;;;;;;4978772;28;20025;-63
2023/04/03 03:41:58;;;;;;;5.50;1.17;;;4.80;99.90;;;;;;4979635;28;20021;-63
2023/04/03 03:44:23;;;;;;;8.07;1.45;;;5.00;99.90;;;;;;4979163;28;20077;-63
2023/04/03 03:46:49;;;;;;;3.15;0.77;;;5.20;99.90;;;;;;4978747;28;20125;-64
2023/04/03 03:49:15;;;;;;;2.38;0.80;;;5.20;99.90;;;;;;4979684;28;20026;-63
2023/04/03 03:51:40;;;;;;;4.03;0.82;;;5.30;99.90;;;;;;4978737;28;20039;-63
2023/04/03 03:54:06;;;;;;;7.63;1.10;;;5.30;99.90;;;;;;4978797;28;20027;-63
2023/04/03 03:56:33;;;;;;;2.60;0.82;;;5.30;99.90;;;;;;4979372;28;20023;-63
2023/04/03 03:58:58;;;;;;;4.10;0.65;;;5.30;99.90;;;;;;4978577;28;20027;-63
2023/04/03 04:01:24;;;;;;;2.65;0.60;;;5.20;99.90;;;;;;4978460;28;20030;-63
2023/04/03 04:03:50;;;;;;;8.15;1.08;;;5.10;99.90;;;;;;4978371;28;20038;-63
2023/04/03 04:06:15;;;;;;;4.70;0.88;;;5.30;99.90;;;;;;4978390;28;20027;-64
2023/04/03 04:08:41;;;;;;;2.67;0.88;;;5.20;99.90;;;;;;4978469;28;20089;-63
2023/04/03 04:11:08;;;;;;;2.63;0.80;;;5.20;99.90;;;;;;4978252;28;20023;-63
2023/04/03 04:13:33;;;;;;;2.92;0.80;;;5.10;99.90;;;;;;4978342;28;20074;-63
2023/04/03 04:15:59;;;;;;;5.05;1.08;;;5.20;99.90;;;;;;4978190;28;20019;-64
2023/04/03 04:18:25;;;;;;;2.65;0.80;;;5.20;99.90;;;;;;4978865;28;20033;-63
2023/04/03 04:20:50;;;;;;;3.35;1.02;;;5.10;99.90;;;;;;4979145;28;20031;-63
2023/04/03 04:23:17;;;;;;;7.15;0.73;;;5.00;99.90;;;;;;4979030;28;20037;-64
2023/04/03 04:25:48;;;;;;;4.82;0.82;;;5.00;99.90;;;;;;4978856;28;20039;-63
2023/04/03 04:28:14;;;;;;;3.70;0.68;;;5.00;99.90;;;;;;4979221;28;20030;-63
2023/04/03 04:30:40;;;;;;;1.95;0.68;;;4.90;99.90;;;;;;4978738;28;20085;-64
2023/04/03 04:33:06;;;;;;;2.38;0.80;;;4.90;99.90;;;;;;4978644;28;20027;-63
2023/04/03 04:35:32;;;;;;;1.80;0.52;;;4.90;99.90;;;;;;4979011;28;20022;-63
2023/04/03 04:37:58;;;;;;;1.75;0.52;;;4.90;99.90;;;;;;4977829;28;20026;-63
2023/04/03 04:40:24;;;;;;;2.40;0.93;;;4.70;99.90;;;;;;4978402;28;20086;-63
2023/04/03 04:42:49;;;;;;;6.80;0.93;;;4.70;99.90;;;;;;4978031;28;20023;-63
2023/04/03 04:45:15;;;;;;;4.65;0.93;;;4.70;99.90;;;;;;4978068;28;20035;-63
2023/04/03 04:47:40;;;;;;;2.22;0.52;;;4.70;99.90;;;;;;4978486;28;20027;-63
2023/04/03 04:50:07;;;;;;;1.55;0.80;;;4.80;99.90;;;;;;4977724;28;20029;-64
2023/04/03 04:52:32;;;;;;;2.95;1.10;;;4.80;99.90;;;;;;4978508;28;20049;-63
2023/04/03 04:54:58;;;;;;;2.42;0.98;;;4.70;99.90;;;;;;4977735;28;20054;-63
2023/04/03 04:57:24;;;;;;;4.50;0.73;;;4.70;99.90;;;;;;4978325;28;20019;-64
2023/04/03 04:59:49;;;;;;;3.33;1.38;;;4.70;99.90;;;;;;4977694;28;20070;-64
2023/04/03 05:02:15;;;;;;;4.80;1.55;;;4.70;99.90;;;;;;4978247;28;20048;-63
2023/04/03 05:04:40;;;;;;;7.40;1.00;;;4.60;99.90;;;;;;4977317;28;20081;-63
2023/04/03 05:07:06;;;;;;;5.00;0.98;;;4.60;99.90;;;;;;4978168;28;20022;-64
2023/04/03 05:09:31;;;;;;;3.00;0.98;;;4.60;99.90;;;;;;4977622;28;20027;-64
2023/04/03 05:11:57;;;;;;;2.90;0.95;;;4.60;99.90;;;;;;4976716;28;20026;-63
2023/04/03 05:14:23;;;;;;;4.13;0.82;;;4.60;99.90;;;;;;4977127;28;20134;-64
2023/04/03 05:16:52;;;;;;;5.70;0.90;;;4.60;99.90;;;;;;4978246;28;20030;-63
2023/04/03 05:19:18;;;;;;;2.65;0.80;;;4.60;99.90;;;;;;4977282;28;20045;-63
2023/04/03 05:21:43;;;;;;;4.38;1.33;;;4.50;99.90;;;;;;4977614;28;20025;-63
2023/04/03 05:24:09;;;;;;;3.30;1.02;;;4.50;99.90;;;;;;4977522;28;20038;-63
2023/04/03 05:26:35;;;;;;;2.83;0.80;;;4.50;99.90;;;;;;4977509;28;20035;-64
2023/04/03 05:29:01;;;;;;;4.03;1.20;;;4.50;99.90;;;;;;4977099;28;20090;-63
2023/04/03 05:31:29;;;;;;;2.63;1.20;;;4.40;99.90;;;;;;4977206;28;20033;-63
2023/04/03 05:33:55;;;;;;;6.43;1.50;;;4.40;99.90;;;;;;4977783;28;20081;-63
2023/04/03 05:36:20;;;;;;;4.25;1.20;;;4.30;99.90;;;;;;4977222;28;20023;-63
2023/04/03 05:38:47;;;;;;;2.78;1.05;;;4.40;99.90;;;;;;4978004;28;20023;-64
2023/04/03 05:41:13;;;;;;;6.05;1.40;;;4.40;99.90;;;;;;4976999;28;20027;-63
2023/04/03 05:43:39;;;;;;;6.47;1.20;;;4.30;99.90;;;;;;4977636;28;20027;-63
2023/04/03 05:46:12;;;;;;;4.90;1.33;;;4.20;99.90;;;;;;4977591;28;20054;-63
2023/04/03 05:48:37;;;;;;;4.47;1.27;;;4.30;99.90;;;;;;4977026;28;20027;-63
2023/04/03 05:51:04;;;;;;;4.07;1.70;;;4.40;99.90;;;;;;4977010;28;20027;-63
2023/04/03 05:53:33;;;;;;;8.75;1.30;;;4.50;99.90;;;;;;4977685;28;20105;-63
2023/04/03 05:55:58;;;;;;;3.05;1.42;;;4.40;99.90;;;;;;4977098;28;20030;-63
2023/04/03 05:58:24;;;;;;;6.88;1.40;;;4.30;99.90;;;;;;4976922;28;20019;-64
2023/04/03 06:00:50;;;;;;;9.85;1.98;;;4.10;99.90;;;;;;4977756;28;20030;-63
2023/04/03 06:03:16;;;;;;;5.03;1.20;;;4.00;99.90;;;;;;4977842;28;20034;-63
2023/04/03 06:05:42;;;;;;;4.43;1.50;;;4.10;99.90;;;;;;4977902;28;20027;-63
2023/04/03 06:08:08;;;;;;;1.48;0.80;;;3.90;99.90;;;;;;4977285;28;20029;-63
2023/04/03 06:10:35;;;;;;;6.63;1.35;;;4.00;99.90;;;;;;4978155;28;20050;-63
2023/04/03 06:13:00;;;;;;;2.85;1.20;;;4.10;99.90;;;;;;4976729;28;20043;-63
2023/04/03 06:15:27;;;;;;;5.47;1.17;;;4.10;99.90;;;;;;4976829;28;20019;-63
2023/04/03 06:17:52;;;;;;;3.85;0.85;;;4.00;99.90;;;;;;4977568;28;20015;-64
2023/04/03 06:20:18;;;;;;;4.45;1.52;;;4.10;99.90;;;;;;4976663;28;20091;-63
2023/04/03 06:22:43;;;;;;;6.47;1.50;;;4.00;99.90;;;;;;4976812;28;20019;-63
2023/04/03 06:25:09;;;;;;;3.55;1.10;;;4.00;99.90;;;;;;4980252;28;20030;-63
2023/04/03 06:27:35;;;;;;;6.35;1.08;;;3.90;99.90;;;;;;4981769;28;20081;-66
2023/04/03 06:30:01;;;;;;;3.10;0.90;;;3.80;99.90;;;;;;4981603;28;20034;-66
2023/04/03 06:32:26;;;;;;;4.97;1.52;;;3.70;99.90;;;;;;4981007;28;20095;-67
2023/04/03 06:34:53;;;;;;;8.50;1.60;;;3.90;99.90;;;;;;4980385;28;20029;-67
2023/04/03 06:37:21;;;;;;;6.53;1.67;;;3.90;99.90;;;;;;4980343;28;20027;-67
2023/04/03 06:39:47;;;;;;;4.20;1.40;;;3.80;99.90;;;;;;4980839;28;20023;-67
2023/04/03 06:42:12;;;;;;;5.63;1.38;;;3.70;99.90;;;;;;4980361;28;20027;-67
2023/04/03 06:44:38;;;;;;;8.55;1.30;;;3.90;99.90;;;;;;4979974;28;20047;-67
2023/04/03 06:47:04;;;;;;;8.73;2.28;;;4.10;99.90;;;;;;4996541;28;20034;-67
2023/04/03 06:49:30;;;;;;;4.63;1.02;;;4.20;99.90;;;;;;5000212;28;20027;-66
2023/04/03 06:51:56;;;;;;;11.10;2.03;;;4.10;99.90;;;;;;4999250;28;20022;-66
2023/04/03 06:54:22;;;;;;;5.35;1.30;;;4.00;99.90;;;;;;4999244;28;20026;-66
2023/04/03 06:56:48;;;;;;;3.65;1.38;;;4.20;99.90;;;;;;4999497;28;20026;-66
2023/04/03 06:59:14;;;;;;;2.00;1.20;;;4.10;99.90;;;;;;5000635;28;20022;-66
2023/04/03 07:01:40;;;;;;;3.50;1.50;;;4.20;99.90;;;;;;4999128;28;20049;-67
2023/04/03 07:04:06;;;;;;;3.25;1.40;;;4.10;99.90;;;;;;4999639;28;20026;-66
2023/04/03 07:06:33;;;;;;;1.20;1.10;;;4.00;99.90;;;;;;4999113;28;20028;-66
2023/04/03 07:08:59;;;;;;;6.03;1.40;;;3.90;99.90;;;;;;4999964;28;20026;-66
2023/04/03 07:11:25;;;;;;;4.35;1.33;;;3.90;99.90;;;;;;4999430;28;20026;-67
2023/04/03 07:13:51;;;;;;;8.48;2.05;;;4.10;99.90;;;;;;4999585;28;20022;-66
2023/04/03 07:16:17;;;;;;;4.25;1.67;;;4.30;99.90;;;;;;4998885;28;20018;-66
2023/04/03 07:18:42;;;;;;;3.72;1.42;;;4.30;99.90;;;;;;5000003;28;20014;-66
2023/04/03 07:21:08;;;;;;;12.13;2.05;;;4.30;99.90;;;;;;4999060;28;20018;-66
2023/04/03 07:23:33;;;;;;;4.15;1.10;;;4.40;99.90;;;;;;4999012;28;20026;-66
2023/04/03 07:25:59;;;;;;;5.88;1.40;;;4.60;99.90;;;;;;4999595;28;20034;-66
2023/04/03 07:28:25;;;;;;;5.68;1.20;;;4.70;99.90;;;;;;4999460;28;20061;-66
2023/04/03 07:31:01;;;;;;;4.35;1.00;;;4.90;99.90;;;;;;4999266;28;20026;-67
2023/04/03 07:33:26;;;;;;;4.07;1.30;;;4.90;99.90;;;;;;4999333;28;20068;-67
2023/04/03 07:35:52;;;;;;;3.55;1.20;;;5.00;99.90;;;;;;4998671;28;20022;-66
2023/04/03 07:38:18;;;;;;;6.97;1.63;;;5.10;99.90;;;;;;4998425;28;20022;-67
2023/04/03 07:40:47;;;;;;;5.47;1.45;;;5.00;99.90;;;;;;4998274;28;20029;-66
2023/04/03 07:43:17;;;;;;;3.92;1.30;;;4.80;99.90;;;;;;4998397;28;20106;-66
2023/04/03 07:45:43;;;;;;;5.68;1.10;;;4.90;99.90;;;;;;4998253;28;20042;-66
2023/04/03 07:48:10;;;;;;;4.68;1.23;;;4.90;99.90;;;;;;4998980;28;20029;-65
2023/04/03 07:50:36;;;;;;;5.03;1.42;;;4.90;99.90;;;;;;4999363;28;20026;-65
2023/04/03 07:53:02;;;;;;;4.65;1.35;;;5.00;99.90;;;;;;4998856;28;20085;-65
2023/04/03 07:55:28;;;;;;;1.52;1.10;;;5.00;99.90;;;;;;4998362;28;20033;-65
2023/04/03 07:57:54;;;;;;;3.40;1.30;;;5.00;99.90;;;;;;4998067;28;20014;-65
2023/04/03 08:00:19;;;;;;;8.23;1.95;;;5.10;99.90;;;;;;4998955;28;20022;-65
2023/04/03 08:02:50;;;;;;;2.50;1.13;;;5.00;99.90;;;;;;4997921;28;20023;-65
2023/04/03 08:05:17;;;;;;;9.45;1.80;;;5.00;99.90;;;;;;4997836;28;20056;-65
2023/04/03 08:07:42;;;;;;;6.53;1.30;;;4.90;99.90;;;;;;4998647;28;20077;-65
2023/04/03 08:10:08;;;;;;;4.97;0.90;;;4.90;99.90;;;;;;4997966;28;20022;-66
2023/04/03 08:12:34;;;;;;;4.38;1.20;;;5.10;99.90;;;;;;4997690;28;20161;-65
2023/04/03 08:15:01;;;;;;;4.13;1.35;;;5.30;99.90;;;;;;4998517;28;20082;-66
2023/04/03 08:17:26;;;;;;;4.78;1.00;;;5.30;99.90;;;;;;4997737;28;20109;-66
2023/04/03 08:19:52;;;;;;;6.43;1.67;;;5.30;99.90;;;;;;4998426;28;20084;-66
2023/04/03 08:22:17;;;;;;;3.60;1.10;;;5.40;99.90;;;;;;4997586;28;20029;-66
2023/04/03 08:24:43;;;;;;;2.90;1.20;;;5.40;99.90;;;;;;4997451;28;20026;-65
2023/04/03 08:27:09;;;;;;;4.00;1.60;;;5.40;99.90;;;;;;4997812;28;20022;-65
2023/04/03 08:29:37;;;;;;;2.78;0.98;;;5.50;99.90;;;;;;4998386;28;20060;-65
2023/04/03 08:32:03;;;;;;;3.85;1.27;;;5.60;99.90;;;;;;4998300;28;20056;-65
2023/04/03 08:34:29;;;;;;;3.97;1.20;;;5.50;99.90;;;;;;4998490;28;20030;-66
2023/04/03 08:36:55;;;;;;;2.45;1.35;;;5.60;99.90;;;;;;4997671;28;20077;-65
2023/04/03 08:39:21;;;;;;;2.28;1.20;;;5.80;99.90;;;;;;4998035;28;20026;-65
2023/04/03 08:41:47;;;;;;;4.10;1.05;;;5.90;99.90;;;;;;4998096;28;20016;-65
2023/04/03 08:44:39;;;;;;;5.28;2.03;;;5.90;99.90;;;;;;4997243;28;20057;-65
2023/04/03 08:47:24;;;;;;;2.90;1.35;;;6.00;99.90;;;;;;4997087;28;20030;-66
2023/04/03 08:49:59;;;;;;;5.43;1.80;;;6.10;99.90;;;;;;4998080;28;20054;-66
2023/04/03 08:52:58;;;;;;;3.20;1.25;;;6.10;99.90;;;;;;4997009;28;20069;-66
2023/04/03 08:55:55;;;;;;;10.23;1.10;;;6.20;99.90;;;;;;4997833;28;20030;-66
2023/04/03 08:58:30;;;;;;;3.47;1.40;;;6.40;99.90;;;;;;4997938;28;20026;-66
2023/04/03 09:00:58;;;;;;;3.90;1.17;;;6.50;99.90;;;;;;4997907;28;20018;-66
2023/04/03 09:03:24;;;;;;;2.85;0.90;;;6.30;99.90;;;;;;4996926;28;20048;-66
2023/04/03 09:06:06;;;;;;;2.65;0.80;;;6.20;99.90;;;;;;4996919;28;20046;-65
2023/04/03 09:08:51;;;;;;;7.10;1.48;;;5.90;99.90;;;;;;4996861;28;20026;-65
2023/04/03 09:11:43;;;;;;;2.05;1.08;;;5.60;99.90;;;;;;4998080;28;20057;-65
2023/04/03 09:14:14;;;;;;;2.85;1.02;;;5.50;99.90;;;;;;4996740;28;20034;-65
2023/04/03 09:17:02;;;;;;;6.78;1.15;;;5.80;99.90;;;;;;4996722;28;20117;-65
2023/04/03 09:19:43;;;;;;;1.88;0.85;;;6.20;99.90;;;;;;4996713;28;20022;-65
2023/04/03 09:22:13;;;;;;;3.30;1.30;;;6.50;99.90;;;;;;4997540;28;20029;-66
2023/04/03 09:24:41;;;;;;;5.00;1.35;;;6.70;99.90;;;;;;4996841;28;20031;-65
2023/04/03 09:27:10;;;;;;;6.10;1.23;;;6.80;99.90;;;;;;4996600;28;20038;-65
2023/04/03 09:29:42;;;;;;;3.15;1.58;;;6.90;99.90;;;;;;4996633;28;20058;-65
2023/04/03 09:32:29;;;;;;;3.83;1.05;;;7.00;99.90;;;;;;4997619;28;20037;-65
2023/04/03 09:35:01;;;;;;;4.95;0.98;;;7.20;99.90;;;;;;4996443;28;20076;-66
2023/04/03 09:37:40;;;;;;;2.47;0.90;;;7.10;99.90;;;;;;4997256;28;20027;-65
2023/04/03 09:40:26;;;;;;;2.97;1.00;;;7.00;99.90;;;;;;4996749;28;20031;-65
2023/04/03 09:42:53;;;;;;;7.80;1.35;;;6.90;99.90;;;;;;4997793;28;20033;-65
2023/04/03 09:45:27;;;;;;;6.03;1.15;;;7.10;99.90;;;;;;4997971;28;20030;-65
2023/04/03 09:48:13;;;;;;;2.13;1.00;;;7.40;99.90;;;;;;4997212;28;20027;-65
2023/04/03 09:50:55;;;;;;;3.72;1.15;;;7.50;99.90;;;;;;4997619;28;20022;-66
2023/04/03 09:53:35;;;;;;;3.47;1.20;;;7.40;99.90;;;;;;4997181;28;20057;-65
2023/04/03 09:56:25;;;;;;;3.78;1.70;;;7.20;99.90;;;;;;4997272;28;20019;-66
2023/04/03 09:59:01;;;;;;;4.47;1.48;;;7.10;99.90;;;;;;4996244;28;20037;-62
2023/04/03 10:01:34;;;;;;;6.10;1.42;;;7.50;99.90;;;;;;5001052;28;20014;-63
2023/04/03 10:04:12;;;;;;;2.67;1.00;;;7.60;99.90;;;;;;5001077;28;20030;-62
2023/04/03 10:06:46;;;;;;;6.70;1.05;;;7.70;99.90;;;;;;5000229;28;20037;-63
2023/04/03 10:09:24;;;;;;;1.33;0.90;;;7.90;99.90;;;;;;5000918;28;20037;-62
2023/04/03 10:12:12;;;;;;;1.60;0.90;;;7.60;99.90;;;;;;5000003;28;20022;-63
2023/04/03 10:14:40;;;;;;;2.67;1.08;;;7.40;99.90;;;;;;4999808;28;20026;-63
2023/04/03 10:17:35;;;;;;;2.58;1.42;;;7.50;99.90;;;;;;5000883;28;20050;-62
2023/04/03 10:20:05;;;;;;;2.00;0.77;;;7.40;99.90;;;;;;4980226;28;20109;-62
2023/04/03 10:22:42;;;;;;;0.95;0.80;;;7.30;99.90;;;;;;5000504;28;20025;-62
2023/04/03 10:25:39;;;;;;;5.22;1.25;;;7.50;99.90;;;;;;5000703;28;20098;-63
2023/04/03 10:28:12;;;;;;;5.35;1.08;;;7.80;99.90;;;;;;4999732;28;20030;-62
2023/04/03 10:31:02;;;;;;;1.70;0.82;;;7.90;99.90;;;;;;5000452;28;20035;-62
2023/04/03 10:33:39;;;;;;;3.08;0.88;;;8.30;99.90;;;;;;5000317;28;20029;-62
2023/04/03 10:36:23;;;;;;;2.75;0.85;;;8.40;99.90;;;;;;4999833;28;20026;-63
2023/04/03 10:39:11;;;;;;;8.50;2.33;;;8.60;99.90;;;;;;5000299;28;20046;-63
2023/04/03 10:41:54;;;;;;;4.20;1.50;;;8.40;99.90;;;;;;4999466;28;20042;-63
2023/04/03 10:44:25;;;;;;;2.85;1.38;;;8.30;99.90;;;;;;4999469;28;20034;-63
2023/04/03 10:46:57;;;;;;;4.20;1.50;;;8.30;99.50;;;;;;4999416;28;20153;-63
2023/04/03 10:49:32;;;;;;;3.92;1.02;;;8.10;99.90;;;;;;4999406;28;20026;-62
2023/04/03 10:52:10;;;;;;;3.20;1.23;;;8.50;99.90;;;;;;4999258;28;20030;-62
2023/04/03 10:54:46;;;;;;;1.80;0.95;;;8.80;99.90;;;;;;5000102;28;20029;-63
2023/04/03 10:57:12;;;;;;;2.85;0.80;;;9.00;99.80;;;;;;5000035;28;20054;-62
2023/04/03 10:59:45;;;;;;;3.13;1.17;;;9.10;99.10;;;;;;4999955;28;20065;-62
2023/04/03 11:02:36;;;;;;;1.02;0.63;;;9.10;99.30;;;;;;4999256;28;20027;-62
2023/04/03 11:05:34;;;;;;;2.30;0.85;;;9.30;98.00;;;;;;4999428;28;20035;-63
2023/04/03 11:08:05;;;;;;;2.40;1.10;;;9.90;97.40;;;;;;4999167;28;20022;-63
2023/04/03 11:10:44;;;;;;;1.52;0.75;;;10.00;97.20;;;;;;4998288;28;20033;-63
2023/04/03 11:13:26;;;;;;;1.65;0.50;;;9.80;96.70;;;;;;4998800;28;20053;-62
2023/04/03 11:15:54;;;;;;;1.80;0.80;;;10.00;95.30;;;;;;4999316;28;20094;-63
2023/04/03 11:18:44;;;;;;;2.92;0.52;;;10.00;93.90;;;;;;4998832;28;20026;-63
2023/04/03 11:21:51;;;;;;;2.05;0.77;;;10.30;93.30;;;;;;4998620;28;20031;-62
2023/04/03 11:24:22;;;;;;;0.85;0.70;;;10.10;93.70;;;;;;4988121;28;20034;-62
2023/04/03 11:26:51;;;;;;;1.92;0.93;;;10.20;92.20;;;;;;4998700;28;20031;-62
2023/04/03 11:29:29;;;;;;;1.33;0.73;;;10.20;92.50;;;;;;4998618;28;20023;-63
2023/04/03 11:32:37;;;;;;;1.50;0.80;;;10.20;92.40;;;;;;4999454;28;20022;-62
2023/04/03 11:35:05;;;;;;;3.10;0.75;;;10.30;92.40;;;;;;4962238;28;20066;-63
2023/04/03 11:37:35;;;;;;;1.42;0.80;;;10.30;93.60;;;;;;4962115;28;20027;-63
2023/04/03 11:40:07;;;;;;;3.63;0.73;;;10.40;93.30;;;;;;4978359;28;20037;-63
2023/04/03 11:42:42;;;;;;;2.03;0.90;;;10.70;93.50;;;;;;4962654;28;20023;-63
2023/04/03 11:45:26;;;;;;;1.95;0.70;;;11.30;92.80;;;;;;4961965;28;20134;-63
2023/04/03 11:47:58;;;;;;;2.63;0.70;;;12.00;91.40;;;;;;4962905;28;20077;-63
2023/04/03 11:50:39;;;;;;;;;;;12.30;91.30;;;;;;4978730;28;20039;-64
2023/04/03 11:53:08;;;;;;;1.70;0.75;;;12.40;90.60;;;;;;4978387;28;19993;-62
2023/04/03 11:55:33;;;;;;;5.28;0.65;;;12.10;90.40;;;;;;4961669;28;20161;-63
2023/04/03 11:57:59;;;;;;;1.58;0.50;;;11.80;87.30;;;;;;4961871;28;20121;-63
2023/04/03 12:00:43;;;;;;;3.67;0.70;;;11.40;86.40;;;;;;4961697;28;20029;-63
2023/04/03 12:03:27;;;;;;;5.03;0.95;;;11.10;86.70;;;;;;4961697;28;20026;-63
2023/04/03 12:06:04;;;;;;;2.50;0.75;;;11.00;88.40;;;;;;4961821;28;20126;-62
2023/04/03 12:08:32;;;;;;;1.55;0.82;;;11.20;90.40;;;;;;4961488;28;20023;-63
2023/04/03 12:11:10;;;;;;;2.20;0.70;;;11.80;90.40;;;;;;4993234;28;20026;-63
2023/04/03 12:13:36;;;;;;;3.22;0.80;;;12.20;87.90;;;;;;4997598;28;20126;-63
2023/04/03 12:16:04;;;;;;;1.67;0.60;;;11.50;85.90;;;;;;4997701;28;20084;-63
2023/04/03 12:19:04;;;;;;;3.13;0.82;;;11.40;87.00;;;;;;4997853;28;20030;-63
2023/04/03 12:21:36;;;;;;;3.40;0.75;;;11.20;87.80;;;;;;4994532;28;20038;-63
2023/04/03 12:24:07;;;;;;;2.88;0.80;;;10.80;89.00;;;;;;4998474;28;20090;-62
2023/04/03 12:26:40;;;;;;;2.22;0.75;;;11.00;89.60;;;;;;4998058;28;20034;-63
2023/04/03 12:29:28;;;;;;;3.70;0.68;;;11.30;87.70;;;;;;4998630;28;20030;-63
2023/04/03 12:32:12;;;;;;;1.27;0.65;;;11.70;83.00;;;;;;4997516;28;20026;-63
2023/04/03 12:34:57;;;;;;;1.98;0.63;;;11.80;82.80;;;;;;4998371;28;20023;-63
2023/04/03 12:37:42;;;;;;;4.40;0.70;;;12.10;83.00;;;;;;4997987;28;20029;-63
2023/04/03 12:40:42;;;;;;;1.90;0.50;;;11.70;85.50;;;;;;4998190;28;20057;-63
2023/04/03 12:43:41;;;;;;;1.30;0.47;;;11.70;84.00;;;;;;4998470;28;20046;-63
2023/04/03 12:46:06;;;;;;;1.63;0.60;;;12.00;83.40;;;;;;4997988;28;20077;-63
2023/04/03 12:48:58;;;;;;;1.75;0.70;;;12.10;85.20;;;;;;4997648;28;20042;-63
2023/04/03 12:51:42;;;;;;;2.75;0.65;;;12.80;85.90;;;;;;4997005;28;20066;-63
2023/04/03 12:54:39;;;;;;;6.38;0.80;;;13.20;82.10;;;;;;4996940;28;20061;-63
2023/04/03 12:57:25;;;;;;;1.38;0.57;;;13.00;82.30;;;;;;4998196;28;20022;-63
2023/04/03 12:59:50;;;;;;;4.05;0.60;;;13.30;81.50;;;;;;4997120;28;20030;-63
2023/04/03 13:02:30;;;;;;;0.68;0.60;;;13.10;81.30;;;;;;4998154;28;20061;-63
2023/04/03 13:05:09;;;;;;;2.05;0.77;;;13.30;84.80;;;;;;4997779;28;20077;-63
2023/04/03 13:07:38;;;;;;;2.72;1.10;;;14.10;84.10;;;;;;4996962;28;20057;-63
2023/04/03 13:10:07;;;;;;;2.40;0.90;;;13.50;80.90;;;;;;4997766;28;20031;-62
2023/04/03 13:12:33;;;;;;;2.80;0.70;;;12.90;78.70;;;;;;4997817;28;20022;-63